Kezdőlap
METAR-TAF:

METAR-TAF

Repülőterek :

Szaratov, Oroszország

földrajzi szélesség: 51-42-46N, földrajzi hosszúság: 46-10-16E, magasság: 118 m

Jelenlegi meteorológiai megfigyelések

A jelentés 41 perccel ezelõtt készült, 10:00 UTC
Déli szél 4 kt
Hőmérséklet 2°C
Páratartalom 93%
Légköri nyomás 1019 hPa
Látótávolság: 9000 m
Szakadozott felhőzet 1200 lábon
Borult 3300 lábon

METAR: UWSG 091000Z 18002MPS 9000 BKN012 OVC033 02/01 Q1019 R08/290057 NOSIG RMK QFE761/1015

Idő: 13:41 (10:41 UTC)


TAF: hiányzik

Meteorológiai megfigyelések és előrejelzések több, mint 4000 repülőtéren (METAR és TAF jelentéseket).

A térképen piros és sárga pontok jelzik az elérhető meteorológiai állomásokat.

Mozgassa az egeret a pont fölött, hogy megjelenjen az állomás neve.

Azután kattintson az időjárási megfigyelések és előrejelzések megtekintéséhez.

A térkép megváltoztatása: kattintson a fekete keresztel jelölt zöld gombra ráközelítéshez, a vonallal jelölt zöld gombra távolításhoz, vagy a zöld nyilakra a szomszédos térképek eléréséhez.


METAR-TAF: